KLXT

Lee's Summit Municipal Airport

Lee's Summit, Missouri, USA
METAR KLXT 212353Z AUTO 05012KT 10SM BKN014 OVC110 M03/M05 A3050 RMK AO2 SLP344 T10331050 11028 21056 50001
Observed Flight Rules
Feb-21 @ 23:53 UTC (5 hours ago) Marginal Visual Flight Rules
Wind Visibility Clouds
50° at 12 knots 10 miles
  • Broken at 1,400' AGL
  • Overcast at 11,000' AGL
Temperatures Readings
Current -3°C / 27°F
Dewpoint -5°C / 23°F
Humidity 86%
Altimeter 30.5" Hg
Pressure 1034.4 hPa
Elevation 306
METAR KLXT 212353Z AUTO 05012KT 10SM BKN014 OVC110 M03/M05 A3050 RMK AO2 SLP344 T10331050 11028 21056 50001
Observed Flight Rules
Feb-21 @ 23:53 UTC
(5 hours ago)
MVFR
Wind Visibility
50° at 12 knots 10 miles
Clouds
  • Broken at 1,400' AGL
  • Overcast at 11,000' AGL
Temperature Dewpoint
-3°C / 27°F -5°C / 23°F
Humidity Altimeter Pressure
86% 30.5" Hg 1034.4 hPa